Istachatta, Florida
Current Conditions -  °F | °C
As of 3:15 PM on Sunday 25 Jan 2015 (Local Time) from KINF Reporting Station
Clear Clear  
Wind Chill: 61°   Ceiling: Unl
Heat Index: 61°   Visibility: 10mi
Dew Point: 43°   Wind: 5mph
Humidity: 52%   Direction: 300°WNW
Pressure: 30"   Gusts: NA
Location:  28.66°N, 82.28°W
Report Text: KINF 252015Z AUTO 30004KT 10SM CLR 16/06 A3000 RMK AO2
Loading
Personal Weather Stations






























Interactive Weather Map New forecast layout! Learn more

10-Day Weather Forecast

Advertisements
Track Severe Weather on mobile